Time;durP1;ratioP1;P1;durP2;ratioP2;P2;SDS_P1;SDS_P2;PMS_P1;PMS_P2;Temp;Humidity;BMP_temperature;BMP_pressure;BME280_temperature;BME280_humidity;BME280_pressure;Samples;Min_cycle;Max_cycle;Signal;HPM_P1;HPM_P2
2021/06/20 00:02:05;;;;;;;8.35;1.25;;;;;;;19.76;69.69;99995.06;1810263;79;21873;-79
2021/06/20 00:05:12;;;;;;;4.40;1.27;;;;;;;19.74;68.96;100004.70;1811281;79;21349;-80
2021/06/20 00:08:20;;;;;;;8.98;1.57;;;;;;;19.74;68.73;100004.70;1809561;79;21220;-80
2021/06/20 00:11:27;;;;;;;8.88;1.17;;;;;;;19.73;68.80;100002.48;1810639;79;21390;-80
2021/06/20 00:14:32;;;;;;;8.55;1.42;;;;;;;19.71;68.99;99995.47;1812335;79;21251;-80
2021/06/20 00:17:36;;;;;;;6.55;1.42;;;;;;;19.66;69.18;100002.59;1811627;79;21330;-80
2021/06/20 00:20:48;;;;;;;5.35;1.20;;;;;;;19.62;69.29;100001.96;1811260;79;21164;-80
2021/06/20 00:23:53;;;;;;;8.38;1.82;;;;;;;19.57;69.54;99992.08;1812285;79;21825;-80
2021/06/20 00:26:58;;;;;;;6.03;1.42;;;;;;;19.52;69.56;99990.03;1810729;79;21679;-80
2021/06/20 00:30:03;;;;;;;3.62;1.20;;;;;;;19.48;69.46;99994.92;1812315;79;21773;-80
2021/06/20 00:33:08;;;;;;;3.80;1.40;;;;;;;19.45;69.67;99992.11;1812282;79;21144;-80
2021/06/20 00:36:14;;;;;;;5.95;1.45;;;;;;;19.40;69.74;99985.05;1812297;79;21192;-80
2021/06/20 00:39:20;;;;;;;10.85;1.50;;;;;;;19.36;70.06;99976.91;1812289;79;21252;-80
2021/06/20 00:42:24;;;;;;;5.15;1.40;;;;;;;19.28;70.51;99969.80;1812339;79;21541;-80
2021/06/20 00:45:30;;;;;;;10.55;1.47;;;;;;;19.23;70.92;99971.06;1812310;79;21251;-80
2021/06/20 00:48:34;;;;;;;9.68;1.37;;;;;;;19.16;71.30;99970.36;1812275;79;21129;-80
2021/06/20 00:51:39;;;;;;;6.53;1.40;;;;;;;19.09;71.68;99970.45;1812260;79;21291;-80
2021/06/20 00:54:48;;;;;;;7.05;1.60;;;;;;;19.02;72.04;99972.52;1809392;79;21287;-80
2021/06/20 00:57:52;;;;;;;4.37;1.30;;;;;;;18.96;72.24;99976.26;1811610;79;21323;-80
2021/06/20 01:00:58;;;;;;;4.95;1.35;;;;;;;18.92;72.39;99974.20;1811281;79;21896;-80
2021/06/20 01:04:04;;;;;;;5.42;1.55;;;;;;;18.87;72.80;99977.69;1811243;79;21837;-80
2021/06/20 01:07:10;;;;;;;4.50;1.27;;;;;;;18.81;73.08;99970.31;1811213;79;21279;-80
2021/06/20 01:10:20;;;;;;;7.60;1.37;;;;;;;18.74;73.41;99962.66;1809747;79;21219;-80
2021/06/20 01:13:25;;;;;;;7.55;1.17;;;;;;;18.68;73.57;99962.17;1809649;79;21845;-80
2021/06/20 01:16:30;;;;;;;8.08;2.00;;;;;;;18.65;73.77;99967.12;1812240;79;21267;-80
2021/06/20 01:19:36;;;;;;;4.50;1.60;;;;;;;18.60;73.99;99962.84;1812374;79;21248;-80
2021/06/20 01:22:42;;;;;;;12.68;1.70;;;;;;;18.55;74.03;99962.70;1812026;79;21188;-80
2021/06/20 01:25:51;;;;;;;4.45;1.20;;;;;;;18.53;74.06;99955.70;1812228;79;21833;-80
2021/06/20 01:29:03;;;;;;;3.83;1.20;;;;;;;18.49;74.18;99945.66;1812236;79;21152;-80
2021/06/20 01:32:04;;;;;;;12.45;1.90;;;;;;;18.47;74.22;99950.58;1812164;79;21304;-80
2021/06/20 01:35:11;;;;;;;4.20;1.55;;;;;;;18.44;74.16;99936.35;1812263;79;21772;-80
2021/06/20 01:38:17;;;;;;;5.58;1.52;;;;;;;18.44;73.98;99947.42;1812177;79;21701;-80
2021/06/20 01:41:23;;;;;;;11.00;1.67;;;;;;;18.42;73.66;99939.37;1812197;79;21267;-80
2021/06/20 01:44:28;;;;;;;8.93;1.60;;;;;;;18.43;73.50;99942.98;1812275;79;21243;-80
2021/06/20 01:47:35;;;;;;;16.67;1.45;;;;;;;18.45;73.46;99933.91;1812229;79;21680;-80
2021/06/20 01:50:40;;;;;;;3.47;1.32;;;;;;;18.47;73.39;99946.97;1812181;79;21263;-80
2021/06/20 01:53:45;;;;;;;10.03;1.42;;;;;;;18.48;73.49;99949.48;1811709;79;21768;-80
2021/06/20 01:56:50;;;;;;;4.75;1.25;;;;;;;18.47;73.32;99945.03;1809429;79;21854;-80
2021/06/20 01:59:54;;;;;;;3.55;1.20;;;;;;;18.49;73.46;99944.80;1809387;79;21835;-80
2021/06/20 02:03:01;;;;;;;5.85;1.57;;;;;;;18.49;73.40;99940.64;1809401;79;21267;-80
2021/06/20 02:06:07;;;;;;;9.55;1.65;;;;;;;18.47;73.25;99933.13;1809390;79;21243;-80
2021/06/20 02:09:14;;;;;;;13.22;1.37;;;;;;;18.45;73.27;99937.52;1809257;79;21306;-80
2021/06/20 02:12:21;;;;;;;6.78;2.27;;;;;;;18.42;73.25;99935.22;1809367;79;21252;-80
2021/06/20 02:15:27;;;;;;;4.92;1.60;;;;;;;18.38;73.34;99930.69;1809366;79;21260;-80
2021/06/20 02:18:32;;;;;;;10.98;1.30;;;;;;;18.37;73.22;99926.23;1809365;79;21261;-80
2021/06/20 02:21:36;;;;;;;12.28;1.82;;;;;;;18.37;73.38;99929.55;1809495;79;21751;-80
2021/06/20 02:24:42;;;;;;;5.15;1.07;;;;;;;18.33;73.09;99923.63;1809325;79;21165;-80
2021/06/20 02:27:47;;;;;;;9.13;1.60;;;;;;;18.32;73.25;99927.48;1809366;79;21319;-80
2021/06/20 02:30:53;;;;;;;11.73;1.67;;;;;;;18.31;73.27;99931.89;1809274;79;21248;-80
2021/06/20 02:33:58;;;;;;;4.05;1.30;;;;;;;18.35;73.17;99926.19;1809382;79;21176;-80
2021/06/20 02:37:02;;;;;;;10.85;1.85;;;;;;;18.38;72.79;99920.99;1809376;79;21192;-80
2021/06/20 02:40:08;;;;;;;6.80;1.30;;;;;;;18.47;72.39;99934.51;1809186;79;21279;-80
2021/06/20 02:43:13;;;;;;;9.03;1.17;;;;;;;18.68;71.48;99927.03;1809389;79;21248;-80
2021/06/20 02:46:18;;;;;;;7.75;1.32;;;;;;;18.98;70.42;99924.19;1809399;79;21256;-80
2021/06/20 02:49:23;;;;;;;6.45;1.42;;;;;;;19.19;69.18;99916.34;1809370;79;21708;-80
2021/06/20 02:52:29;;;;;;;4.50;1.25;;;;;;;19.23;68.43;99920.31;1808375;79;21342;-80
2021/06/20 02:55:34;;;;;;;3.50;1.10;;;;;;;19.17;67.73;99915.75;1806685;79;21185;-80
2021/06/20 02:58:40;;;;;;;7.53;1.70;;;;;;;19.07;67.30;99907.50;1811206;79;21767;-80
2021/06/20 03:01:46;;;;;;;8.43;1.50;;;;;;;19.02;67.32;99906.55;1811124;79;21291;-80
2021/06/20 03:04:53;;;;;;;7.87;1.77;;;;;;;18.95;67.12;99913.58;1809961;79;21169;-80
2021/06/20 03:07:58;;;;;;;6.33;1.62;;;;;;;18.90;67.10;99907.91;1809620;79;21303;-80
2021/06/20 03:11:04;;;;;;;5.47;1.37;;;;;;;19.06;66.52;99918.30;1810866;79;21259;-80
2021/06/20 03:14:09;;;;;;;8.45;1.20;;;;;;;19.20;65.77;99916.12;1810591;79;21369;-80
2021/06/20 03:17:16;;;;;;;7.62;1.40;;;;;;;19.20;65.76;99915.28;1811170;79;21850;-80
2021/06/20 03:20:23;;;;;;;6.45;1.32;;;;;;;19.13;66.00;99910.68;1812169;79;21157;-80
2021/06/20 03:23:29;;;;;;;14.83;1.32;;;;;;;19.05;65.76;99919.35;1812216;79;21279;-80
2021/06/20 03:26:34;;;;;;;13.48;1.70;;;;;;;19.02;65.99;99917.63;1812201;79;21259;-80
2021/06/20 03:29:39;;;;;;;5.70;1.70;;;;;;;19.20;65.50;99927.75;1812133;79;21692;-80
2021/06/20 03:32:44;;;;;;;9.95;2.22;;;;;;;19.53;64.68;99922.95;1812146;79;21265;-80
2021/06/20 03:35:49;;;;;;;3.92;1.32;;;;;;;19.78;63.37;99917.11;1812196;79;21808;-80
2021/06/20 03:38:55;;;;;;;9.25;1.60;;;;;;;20.03;62.54;99915.38;1812179;79;21243;-80
2021/06/20 03:42:00;;;;;;;5.62;1.55;;;;;;;20.22;61.67;99925.19;1812141;79;21252;-80
2021/06/20 03:45:07;;;;;;;6.53;1.40;;;;;;;20.26;60.72;99931.09;1810643;79;21701;-80
2021/06/20 03:48:12;;;;;;;10.48;1.57;;;;;;;20.20;60.44;99943.20;1812167;79;21192;-80
2021/06/20 03:51:18;;;;;;;8.00;1.50;;;;;;;20.35;60.40;99917.10;1812231;79;21256;-80
2021/06/20 03:54:24;;;;;;;5.65;1.12;;;;;;;20.57;59.66;99927.81;1812303;79;21172;-80
2021/06/20 03:57:31;;;;;;;13.10;2.12;;;;;;;20.66;58.85;99921.30;1805308;79;21350;-80
2021/06/20 04:00:36;;;;;;;11.22;1.45;;;;;;;20.72;59.30;99926.39;1803796;79;21764;-80
2021/06/20 04:03:42;;;;;;;6.60;1.20;;;;;;;20.81;59.25;99923.48;1803723;79;21676;-80
2021/06/20 04:06:47;;;;;;;4.58;1.60;;;;;;;20.86;58.20;99906.34;1803798;79;21302;-80
2021/06/20 04:09:53;;;;;;;10.63;1.72;;;;;;;20.86;58.64;99918.02;1801681;79;21184;-80
2021/06/20 04:12:46;;;;;;;12.80;1.98;;;;;;;20.82;57.59;99906.55;1802819;79;21295;-80
2021/06/20 04:15:52;;;;;;;10.83;1.37;;;;;;;20.86;58.18;99894.38;1801331;79;21260;-80
2021/06/20 04:18:57;;;;;;;7.35;1.12;;;;;;;20.95;56.98;99883.13;1802744;79;21228;-80
2021/06/20 04:22:04;;;;;;;4.20;1.40;;;;;;;21.09;56.89;99883.62;1802814;79;21295;-80
2021/06/20 04:25:12;;;;;;;10.03;1.35;;;;;;;21.08;56.57;99876.38;1801282;79;21284;-80
2021/06/20 04:28:19;;;;;;;4.28;1.00;;;;;;;20.92;57.10;99864.17;1802724;79;21295;-80
2021/06/20 04:31:25;;;;;;;10.75;1.70;;;;;;;20.71;57.21;99873.31;1802762;79;21288;-80
2021/06/20 04:34:31;;;;;;;6.42;1.00;;;;;;;20.51;57.99;99887.13;1802564;79;21390;-80
2021/06/20 04:37:36;;;;;;;13.45;1.67;;;;;;;20.35;58.36;99890.17;1802777;79;21288;-80
2021/06/20 04:40:42;;;;;;;5.83;1.07;;;;;;;20.23;58.64;99889.41;1802775;79;21354;-80
2021/06/20 04:46:55;;;;;;;4.62;1.22;;;;;;;20.14;59.71;99886.19;1802776;79;21350;-80
2021/06/20 04:50:01;;;;;;;6.30;1.25;;;;;;;20.30;59.42;99905.91;1801265;79;21303;-80
2021/06/20 04:53:07;;;;;;;11.22;1.42;;;;;;;20.47;59.68;99885.98;1801301;79;22566;-80
2021/06/20 04:56:12;;;;;;;7.83;1.50;;;;;;;20.49;58.86;99901.83;1801661;79;21327;-79
2021/06/20 04:59:17;;;;;;;8.60;1.87;;;;;;;20.44;59.36;99897.55;1801646;79;21451;-80
2021/06/20 05:02:23;;;;;;;5.10;1.40;;;;;;;20.41;59.30;99896.09;1802720;79;21342;-80
2021/06/20 05:05:28;;;;;;;9.63;1.40;;;;;;;20.47;59.28;99917.05;1802350;79;21303;-80
2021/06/20 05:08:34;;;;;;;16.35;2.20;;;;;;;20.45;59.76;99909.50;1802717;79;21291;-79
2021/06/20 05:11:39;;;;;;;5.90;1.07;;;;;;;20.41;59.55;99891.93;1801477;79;21212;-80
2021/06/20 05:14:49;;;;;;;7.08;1.25;;;;;;;20.38;58.86;99901.34;1802719;79;21727;-80
2021/06/20 05:17:56;;;;;;;5.87;1.10;;;;;;;20.40;59.44;99902.75;1803775;79;21256;-80
2021/06/20 05:21:00;;;;;;;8.93;1.55;;;;;;;20.43;58.91;99906.42;1803741;79;21256;-80
2021/06/20 05:24:06;;;;;;;10.53;1.35;;;;;;;20.49;58.88;99905.16;1803750;79;21149;-80
2021/06/20 05:27:11;;;;;;;6.97;1.32;;;;;;;20.57;58.04;99886.14;1803119;79;21334;-80
2021/06/20 05:30:16;;;;;;;9.63;1.80;;;;;;;20.75;58.01;99888.34;1803822;79;21145;-80
2021/06/20 05:33:23;;;;;;;8.90;1.35;;;;;;;20.92;57.66;99894.20;1803848;79;21255;-80
2021/06/20 05:36:29;;;;;;;15.78;2.12;;;;;;;21.09;57.98;99898.91;1803702;79;21818;-80
2021/06/20 05:39:34;;;;;;;16.87;1.87;;;;;;;21.31;56.44;99900.35;1803743;79;21256;-80
2021/06/20 05:42:39;;;;;;;11.93;1.30;;;;;;;21.50;56.52;99912.02;1803710;79;21284;-80
2021/06/20 05:45:44;;;;;;;7.25;1.17;;;;;;;21.61;56.34;99919.42;1803752;79;21126;-80
2021/06/20 05:48:48;;;;;;;13.40;1.45;;;;;;;21.61;56.70;99916.08;1803759;79;21767;-80
2021/06/20 05:51:54;;;;;;;6.70;1.35;;;;;;;21.61;56.28;99936.11;1803803;79;21331;-80
2021/06/20 05:54:59;;;;;;;11.57;1.37;;;;;;;21.58;56.10;99935.23;1803736;79;21256;-80
2021/06/20 05:58:04;;;;;;;16.37;1.57;;;;;;;21.60;56.36;99921.36;1803674;79;21684;-80
2021/06/20 06:01:10;;;;;;;10.72;2.50;;;;;;;21.68;56.10;99917.27;1803721;79;21249;-80
2021/06/20 06:04:17;;;;;;;13.88;2.25;;;;;;;21.81;56.29;99928.02;1803775;79;21256;-80
2021/06/20 06:07:22;;;;;;;10.68;1.20;;;;;;;21.95;56.01;99916.77;1803741;79;21252;-80
2021/06/20 06:10:27;;;;;;;6.92;1.20;;;;;;;22.13;55.60;99917.01;1803763;79;21259;-80
2021/06/20 06:13:32;;;;;;;7.28;1.70;;;;;;;22.39;55.82;99931.19;1803527;79;21287;-80
2021/06/20 06:16:37;;;;;;;9.40;1.40;;;;;;;22.64;54.86;99931.45;1803628;79;21830;-80
2021/06/20 06:19:42;;;;;;;9.00;1.10;;;;;;;22.84;53.12;99944.72;1803754;79;21296;-80
2021/06/20 06:22:47;;;;;;;12.18;1.62;;;;;;;22.99;53.65;99931.48;1803749;79;21748;-80
2021/06/20 06:25:52;;;;;;;12.85;1.20;;;;;;;23.00;52.52;99947.10;1803740;79;21251;-80
2021/06/20 06:28:57;;;;;;;8.18;1.30;;;;;;;22.95;53.54;99916.39;1803589;79;21177;-80
2021/06/20 06:32:04;;;;;;;10.93;1.70;;;;;;;22.84;51.71;99928.55;1787040;79;21129;-80
2021/06/20 06:35:09;;;;;;;13.38;1.60;;;;;;;22.69;50.99;99916.72;1803744;79;21746;-80
2021/06/20 06:38:15;;;;;;;7.72;1.27;;;;;;;22.58;53.23;99940.02;1803669;79;21220;-80
2021/06/20 06:41:20;;;;;;;7.25;1.95;;;;;;;22.44;53.66;99935.42;1803721;79;21311;-80
2021/06/20 06:44:27;;;;;;;10.50;1.30;;;;;;;22.35;52.43;99937.86;1803651;79;21173;-80
2021/06/20 06:47:37;;;;;;;5.37;1.27;;;;;;;22.34;53.39;99946.47;1803726;79;21300;-80
2021/06/20 06:50:44;;;;;;;12.60;1.67;;;;;;;22.30;52.92;99948.09;1803735;79;21255;-80
2021/06/20 06:53:49;;;;;;;5.47;1.40;;;;;;;22.28;54.55;99938.61;1803734;79;21295;-80
2021/06/20 06:56:54;;;;;;;9.65;1.30;;;;;;;22.26;54.27;99931.64;1803642;79;21299;-80
2021/06/20 07:00:01;;;;;;;7.33;1.30;;;;;;;22.23;55.22;99920.45;1804083;79;21196;-80
2021/06/20 07:03:06;;;;;;;15.75;1.50;;;;;;;22.26;53.82;99934.42;1812199;79;21145;-80
2021/06/20 07:06:11;;;;;;;3.40;1.30;;;;;;;22.21;54.38;99924.07;1812206;79;21140;-80
2021/06/20 07:09:19;;;;;;;10.40;1.50;;;;;;;22.22;54.70;99924.91;1812230;79;21248;-80
2021/06/20 07:12:25;;;;;;;4.00;1.27;;;;;;;22.27;55.47;99912.42;1812191;79;21256;-80
2021/06/20 07:15:31;;;;;;;10.72;1.75;;;;;;;22.38;55.01;99912.25;1811998;79;21193;-80
2021/06/20 07:18:37;;;;;;;9.00;1.42;;;;;;;22.55;54.96;99907.95;1812170;79;21708;-80
2021/06/20 07:21:42;;;;;;;9.80;2.80;;;;;;;22.79;54.73;99904.81;1812222;79;21212;-80
2021/06/20 07:24:47;;;;;;;14.20;1.77;;;;;;;23.05;53.91;99903.91;1812206;79;21311;-80
2021/06/20 07:27:52;;;;;;;5.40;1.65;;;;;;;23.29;53.84;99906.29;1812308;79;21759;-80
2021/06/20 07:30:58;;;;;;;3.55;1.00;;;;;;;23.53;53.46;99921.52;1812320;79;21905;-80
2021/06/20 07:34:03;;;;;;;9.95;1.32;;;;;;;23.76;52.00;99934.77;1812326;79;21125;-80
2021/06/20 07:37:08;;;;;;;9.58;1.40;;;;;;;23.90;51.15;99928.42;1812267;79;21851;-80
2021/06/20 07:40:17;;;;;;;10.32;1.20;;;;;;;23.95;50.89;99925.65;1810649;79;21160;-80
2021/06/20 07:43:23;;;;;;;8.43;1.40;;;;;;;23.82;49.90;99941.51;1812279;79;21760;-80
2021/06/20 07:46:29;;;;;;;4.03;1.10;;;;;;;23.62;50.39;99938.05;1812296;79;21192;-80
2021/06/20 07:49:34;;;;;;;13.00;1.55;;;;;;;23.49;51.57;99941.88;1812316;79;21347;-80
2021/06/20 07:52:39;;;;;;;3.85;1.02;;;;;;;23.41;52.04;99945.44;1812289;79;21251;-80
2021/06/20 07:55:45;;;;;;;11.95;1.10;;;;;;;23.30;49.20;99941.48;1812153;79;21162;-80
2021/06/20 07:58:50;;;;;;;7.70;1.22;;;;;;;23.26;47.57;99952.89;1812158;79;21283;-80
2021/06/20 08:01:54;;;;;;;8.48;1.10;;;;;;;23.32;47.92;99959.61;1809692;79;21860;-80
2021/06/20 08:04:59;;;;;;;4.67;1.10;;;;;;;23.38;47.59;99961.88;1812272;79;21303;-80
2021/06/20 08:08:06;;;;;;;9.33;1.32;;;;;;;23.49;47.93;99949.69;1812234;79;21792;-80
2021/06/20 08:11:10;;;;;;;8.28;1.05;;;;;;;23.62;48.46;99944.15;1812260;79;21153;-80
2021/06/20 08:14:19;;;;;;;7.12;1.20;;;;;;;23.79;50.14;99930.03;1812168;79;21287;-80
2021/06/20 08:17:23;;;;;;;6.20;1.45;;;;;;;24.01;49.74;99934.88;1812306;79;21193;-80
2021/06/20 08:20:29;;;;;;;4.00;1.10;;;;;;;24.29;49.80;99930.77;1812260;79;21164;-80
2021/06/20 08:23:34;;;;;;;6.47;1.35;;;;;;;24.51;48.47;99932.50;1812157;79;21732;-80
2021/06/20 08:26:38;;;;;;;6.15;1.37;;;;;;;24.59;47.63;99939.78;1812315;79;21624;-80
2021/06/20 08:29:44;;;;;;;11.20;1.20;;;;;;;24.60;47.78;99942.86;1811920;79;21338;-80
2021/06/20 08:32:49;;;;;;;9.38;1.02;;;;;;;24.53;46.10;99935.31;1812291;79;21779;-80
2021/06/20 08:35:54;;;;;;;4.67;1.60;;;;;;;24.47;46.55;99944.26;1812265;79;21145;-80
2021/06/20 08:38:59;;;;;;;8.28;1.00;;;;;;;24.45;46.24;99948.43;1812279;79;21333;-80
2021/06/20 08:42:05;;;;;;;3.72;1.10;;;;;;;24.48;46.56;99957.11;1812296;79;21133;-80
2021/06/20 08:45:12;;;;;;;9.83;1.17;;;;;;;24.62;48.54;99946.23;1812216;79;21177;-80
2021/06/20 08:48:19;;;;;;;7.55;1.20;;;;;;;24.90;49.08;99942.05;1812286;79;21316;-80
2021/06/20 08:51:24;;;;;;;7.10;1.30;;;;;;;25.20;44.31;99934.21;1812297;79;21204;-80
2021/06/20 08:54:29;;;;;;;5.78;1.30;;;;;;;25.37;44.11;99931.12;1812291;79;21129;-80
2021/06/20 08:57:37;;;;;;;9.60;1.67;;;;;;;25.33;44.27;99926.37;1812191;79;21193;-80
2021/06/20 09:00:42;;;;;;;4.55;1.20;;;;;;;25.12;45.75;99916.59;1812137;79;21252;-80
2021/06/20 09:03:50;;;;;;;15.43;1.77;;;;;;;24.94;46.57;99941.77;1801031;79;21236;-80
2021/06/20 09:06:58;;;;;;;2.85;1.60;;;;;;;24.82;47.30;99948.76;1803718;79;21267;-80
2021/06/20 09:10:31;;;;;;;6.85;1.72;;;;;;;24.64;47.94;99936.98;1803965;79;21747;-80
2021/06/20 09:13:43;;;;;;;5.60;1.50;;;;;;;24.43;49.69;99946.48;1802085;79;21144;-80
2021/06/20 09:16:56;;;;;;;6.62;1.35;;;;;;;24.30;50.06;99952.56;1803523;79;21279;-80
2021/06/20 09:20:08;;;;;;;5.97;1.30;;;;;;;24.28;51.21;99954.78;1802110;79;21247;-80
2021/06/20 09:23:18;;;;;;;8.45;1.52;;;;;;;24.27;52.28;99945.56;1803674;79;21303;-80
2021/06/20 09:26:23;;;;;;;3.58;1.40;;;;;;;24.32;52.85;99946.97;1803789;79;21256;-80
2021/06/20 09:29:47;;;;;;;6.12;1.15;;;;;;;24.56;52.93;99943.69;1803717;79;21787;-80
2021/06/20 09:33:02;;;;;;;8.70;2.02;;;;;;;24.88;52.97;99947.07;1803561;79;21766;-80
2021/06/20 09:36:07;;;;;;;5.85;1.20;;;;;;;25.29;52.65;99940.08;1801246;79;21355;-80
2021/06/20 09:39:26;;;;;;;4.15;1.27;;;;;;;25.58;51.08;99935.25;1803518;79;21169;-80
2021/06/20 09:42:31;;;;;;;3.40;1.37;;;;;;;25.64;49.34;99930.77;1803727;79;21188;-80
2021/06/20 09:45:38;;;;;;;7.25;1.60;;;;;;;25.56;50.16;99933.31;1803696;79;21185;-80
2021/06/20 09:48:45;;;;;;;8.23;1.60;;;;;;;25.54;50.72;99926.58;1803721;79;21580;-80
2021/06/20 09:51:53;;;;;;;8.90;1.52;;;;;;;25.53;51.77;99923.50;1803689;79;21795;-80
2021/06/20 09:55:02;;;;;;;7.35;1.50;;;;;;;25.50;51.38;99926.86;1802227;79;21141;-80
2021/06/20 09:58:10;;;;;;;7.15;1.30;;;;;;;25.47;50.28;99924.09;1803672;79;21287;-80
2021/06/20 10:01:24;;;;;;;5.97;1.25;;;;;;;25.45;51.41;99932.48;1803254;79;21316;-80
2021/06/20 10:04:30;;;;;;;2.92;1.30;;;;;;;25.43;51.76;99926.34;1801272;79;21335;-80
2021/06/20 10:07:36;;;;;;;12.28;1.40;;;;;;;25.43;52.06;99920.73;1803769;79;21263;-80
2021/06/20 10:10:42;;;;;;;5.35;1.50;;;;;;;25.44;52.96;99918.20;1803801;79;21827;-80
2021/06/20 10:13:47;;;;;;;9.70;1.40;;;;;;;25.45;53.73;99917.95;1803716;79;21197;-80
2021/06/20 10:17:00;;;;;;;12.40;2.02;;;;;;;25.43;54.37;99909.54;1803652;79;21287;-80
2021/06/20 10:20:08;;;;;;;8.18;1.32;;;;;;;25.52;55.43;99913.44;1803716;79;21220;-80
2021/06/20 10:23:27;;;;;;;6.90;1.27;;;;;;;25.63;56.24;99908.06;1803776;79;21771;-80
2021/06/20 10:26:33;;;;;;;4.00;1.57;;;;;;;25.69;55.89;99898.54;1803709;79;21296;-80
2021/06/20 10:29:42;;;;;;;9.38;1.62;;;;;;;25.69;54.62;99908.34;1803751;79;21780;-80
2021/06/20 10:32:55;;;;;;;4.17;1.30;;;;;;;25.63;52.95;99898.83;1803505;79;21287;-80
2021/06/20 10:36:13;;;;;;;3.72;1.50;;;;;;;25.67;49.70;99892.94;1803738;79;21311;-80
2021/06/20 10:39:21;;;;;;;5.92;1.40;;;;;;;25.86;49.07;99895.97;1803698;79;21306;-80
2021/06/20 10:42:30;;;;;;;11.08;1.20;;;;;;;26.08;46.49;99878.20;1803748;79;21249;-80
2021/06/20 10:45:39;;;;;;;10.28;1.32;;;;;;;26.30;43.51;99888.14;1803631;79;21149;-80
2021/06/20 10:48:44;;;;;;;5.95;1.00;;;;;;;26.49;46.87;99887.78;1803957;79;21300;-80
2021/06/20 10:51:49;;;;;;;8.68;1.17;;;;;;;26.73;46.14;99878.87;1803705;79;21256;-80
2021/06/20 10:54:54;;;;;;;13.68;1.35;;;;;;;26.91;46.33;99877.32;1803717;79;21148;-80
2021/06/20 10:58:02;;;;;;;5.40;1.32;;;;;;;27.06;45.55;99871.29;1803669;79;21299;-80
2021/06/20 11:01:22;;;;;;;4.05;0.93;;;;;;;27.16;46.75;99858.00;1803722;79;21287;-80
2021/06/20 11:04:28;;;;;;;3.60;1.07;;;;;;;27.24;45.92;99854.56;1803472;79;21851;-80
2021/06/20 11:07:33;;;;;;;10.20;1.30;;;;;;;27.29;46.42;99859.28;1803781;79;21294;-80
2021/06/20 11:10:38;;;;;;;6.20;1.20;;;;;;;27.28;48.55;99845.52;1803811;79;21252;-80
2021/06/20 11:13:43;;;;;;;3.40;0.98;;;;;;;27.25;48.39;99844.99;1803817;79;21137;-80
2021/06/20 11:16:55;;;;;;;14.45;1.62;;;;;;;27.28;49.25;99851.13;1803669;79;21676;-80
2021/06/20 11:20:00;;;;;;;5.78;1.37;;;;;;;27.29;49.39;99845.78;1802855;79;21306;-80
2021/06/20 11:23:06;;;;;;;6.95;1.70;;;;;;;27.19;44.54;99847.56;1803003;79;21817;-80
2021/06/20 11:26:11;;;;;;;2.72;1.25;;;;;;;27.08;45.15;99846.55;1802927;79;21292;-80
2021/06/20 11:29:17;;;;;;;7.92;1.40;;;;;;;26.95;44.39;99851.72;1802879;79;21287;-80
2021/06/20 11:32:34;;;;;;;6.75;1.15;;;;;;;26.86;44.59;99851.25;1801305;79;21212;-80
2021/06/20 11:35:39;;;;;;;4.10;1.30;;;;;;;26.78;45.19;99846.30;1802766;79;21283;-80
2021/06/20 11:38:46;;;;;;;7.12;1.65;;;;;;;26.58;45.87;99846.73;1802776;79;21379;-80
2021/06/20 11:41:59;;;;;;;8.35;1.72;;;;;;;26.37;46.78;99858.66;1802861;79;21921;-80
2021/06/20 11:45:10;;;;;;;3.80;1.20;;;;;;;26.19;46.91;99850.37;1802862;79;21221;-80
2021/06/20 11:48:15;;;;;;;2.85;1.10;;;;;;;26.19;47.38;99848.13;1802015;79;21208;-80
2021/06/20 11:51:21;;;;;;;4.70;1.12;;;;;;;26.31;47.15;99849.19;1802476;79;21220;-80
2021/06/20 11:54:35;;;;;;;9.18;1.20;;;;;;;26.42;47.93;99842.36;1802892;79;21288;-80
2021/06/20 11:57:39;;;;;;;3.60;1.25;;;;;;;26.50;46.92;99840.37;1801996;79;21208;-80
2021/06/20 12:00:46;;;;;;;3.40;1.00;;;;;;;26.52;48.14;99855.49;1802988;79;21295;-80
2021/06/20 12:03:52;;;;;;;8.53;1.20;;;;;;;26.49;48.66;99854.13;1801896;79;21375;-80
2021/06/20 12:06:58;;;;;;;4.12;0.90;;;;;;;26.43;49.44;99855.27;1799868;79;21295;-80
2021/06/20 12:10:04;;;;;;;6.62;1.10;;;;;;;26.29;48.74;99862.07;1802547;79;21351;-80
2021/06/20 12:13:14;;;;;;;9.40;1.15;;;;;;;26.16;50.67;99857.98;1801274;79;21506;-80
2021/06/20 12:16:19;;;;;;;9.78;1.17;;;;;;;26.11;51.44;99858.02;1801221;79;21280;-80
2021/06/20 12:19:26;;;;;;;5.08;1.30;;;;;;;26.11;51.48;99866.42;1801487;79;21351;-80
2021/06/20 12:22:31;;;;;;;2.70;0.93;;;;;;;26.11;51.25;99851.01;1802266;79;21913;-80
2021/06/20 12:25:37;;;;;;;3.55;1.20;;;;;;;26.06;51.74;99851.58;1802704;79;21177;-80
2021/06/20 12:28:43;;;;;;;7.20;1.25;;;;;;;26.04;52.85;99840.67;1802923;79;21315;-80
2021/06/20 12:31:48;;;;;;;2.98;1.10;;;;;;;25.98;52.01;99846.05;1802397;79;21291;-80
2021/06/20 12:34:58;;;;;;;4.10;1.25;;;;;;;25.87;52.35;99838.80;1801878;79;21212;-80
2021/06/20 12:38:03;;;;;;;2.52;0.93;;;;;;;25.80;52.86;99861.55;1801396;79;21292;-80
2021/06/20 12:41:08;;;;;;;3.12;1.20;;;;;;;25.71;52.99;99837.46;1802704;79;21287;-80
2021/06/20 12:44:14;;;;;;;2.95;1.20;;;;;;;25.64;52.66;99833.28;1802744;79;21335;-80
2021/06/20 12:47:20;;;;;;;6.33;1.30;;;;;;;25.58;53.77;99842.28;1802950;79;21299;-80
2021/06/20 12:50:36;;;;;;;6.87;1.25;;;;;;;25.61;54.38;99831.08;1803035;79;21335;-80
2021/06/20 12:53:48;;;;;;;5.80;1.27;;;;;;;25.66;55.70;99834.69;1801723;79;21284;-80
2021/06/20 12:56:55;;;;;;;6.35;1.20;;;;;;;25.71;54.75;99848.66;1781204;79;21256;-80
2021/06/20 13:00:02;;;;;;;2.25;1.00;;;;;;;25.76;52.88;99831.59;1797832;79;21362;-80
2021/06/20 13:03:12;;;;;;;5.53;1.17;;;;;;;25.76;52.65;99833.83;1802999;79;21720;-80
2021/06/20 13:06:19;;;;;;;5.87;1.20;;;;;;;25.84;51.68;99831.00;1803604;79;21354;-80
2021/06/20 13:09:24;;;;;;;9.00;1.35;;;;;;;25.91;51.55;99837.11;1811714;79;21780;-80
2021/06/20 13:12:30;;;;;;;13.32;1.40;;;;;;;25.97;50.93;99854.15;1812153;79;21125;-80
2021/06/20 13:15:36;;;;;;;10.28;1.27;;;;;;;26.04;52.39;99830.86;1810487;79;21207;-80
2021/06/20 13:18:42;;;;;;;6.60;0.95;;;;;;;26.10;51.77;99838.09;1812176;79;21141;-80
2021/06/20 13:21:48;;;;;;;12.37;1.70;;;;;;;26.09;51.14;99824.39;1812233;79;21256;-80
2021/06/20 13:24:53;;;;;;;6.72;1.47;;;;;;;26.10;51.23;99833.89;1812194;79;21256;-80
2021/06/20 13:27:58;;;;;;;8.03;1.17;;;;;;;26.10;50.50;99820.45;1812409;79;21133;-80
2021/06/20 13:31:03;;;;;;;7.58;1.07;;;;;;;26.13;51.28;99817.91;1812401;79;21248;-80
2021/06/20 13:34:09;;;;;;;5.75;1.10;;;;;;;26.17;52.10;99810.59;1812144;79;21287;-80
2021/06/20 13:37:16;;;;;;;6.85;1.20;;;;;;;26.25;53.08;99818.93;1812258;79;21252;-80
2021/06/20 13:40:28;;;;;;;12.90;1.12;;;;;;;26.29;52.13;99813.02;1812301;79;21287;-80
2021/06/20 13:43:34;;;;;;;2.67;0.85;;;;;;;26.36;50.73;99821.11;1812228;79;21284;-80
2021/06/20 13:46:40;;;;;;;4.85;1.32;;;;;;;26.46;51.46;99819.66;1812296;79;21307;-80
2021/06/20 13:49:45;;;;;;;6.05;1.02;;;;;;;26.55;51.64;99817.06;1788520;79;21283;-80
2021/06/20 13:52:50;;;;;;;3.25;0.90;;;;;;;26.60;51.03;99812.80;1812269;79;21243;-80
2021/06/20 13:55:57;;;;;;;10.88;1.50;;;;;;;26.54;51.61;99795.19;1810511;79;21157;-80
2021/06/20 13:59:03;;;;;;;8.00;1.10;;;;;;;26.43;52.14;99790.22;1812255;79;21263;-80
2021/06/20 14:02:08;;;;;;;10.43;1.30;;;;;;;26.30;53.91;99785.81;1812253;79;21247;-80
2021/06/20 14:05:14;;;;;;;5.08;1.17;;;;;;;26.12;55.26;99779.81;1812261;79;21228;-80
2021/06/20 14:08:21;;;;;;;9.23;1.27;;;;;;;26.03;55.99;99772.31;1808966;79;21164;-80
2021/06/20 14:11:26;;;;;;;6.12;1.27;;;;;;;25.89;56.32;99760.36;1812261;79;21780;-80
2021/06/20 14:14:31;;;;;;;7.60;1.32;;;;;;;25.74;56.87;99764.08;1812249;79;21180;-80
2021/06/20 14:17:39;;;;;;;5.25;1.07;;;;;;;25.64;57.37;99762.74;1812205;79;21255;-80
2021/06/20 14:20:46;;;;;;;8.38;1.32;;;;;;;25.60;57.24;99768.64;1812181;79;21279;-80
2021/06/20 14:23:52;;;;;;;7.03;1.30;;;;;;;25.56;57.13;99754.11;1812181;79;21161;-80
2021/06/20 14:26:58;;;;;;;5.25;1.55;;;;;;;25.55;57.70;99747.67;1812224;79;21184;-80
2021/06/20 14:30:03;;;;;;;6.87;1.45;;;;;;;25.59;57.07;99754.34;1812229;79;21176;-80
2021/06/20 14:33:08;;;;;;;11.20;1.20;;;;;;;25.63;57.66;99757.41;1812031;79;21133;-80
2021/06/20 14:36:17;;;;;;;12.10;1.30;;;;;;;25.66;57.56;99759.08;1791105;79;21739;-80
2021/06/20 14:39:24;;;;;;;4.65;1.20;;;;;;;25.68;57.49;99752.61;1784740;79;21272;-80